Time;durP1;ratioP1;P1;durP2;ratioP2;P2;SDS_P1;SDS_P2;PMS_P1;PMS_P2;Temp;Humidity;BMP_temperature;BMP_pressure;BME280_temperature;BME280_humidity;BME280_pressure;Samples;Min_cycle;Max_cycle;Signal;HPM_P1;HPM_P2
2023/06/17 00:00:33;;;;;;;2.20;1.27;;;;;;;17.70;100.00;94462.63;5075390;28;20228;-79
2023/06/17 00:02:59;;;;;;;2.70;1.40;;;;;;;17.70;100.00;94462.63;5000321;28;20281;-79
2023/06/17 00:05:25;;;;;;;1.40;1.30;;;;;;;17.71;100.00;94455.50;5056465;28;20224;-80
2023/06/17 00:07:51;;;;;;;1.40;1.30;;;;;;;17.65;100.00;94465.25;4978817;28;20644;-80
2023/06/17 00:10:17;;;;;;;2.43;1.30;;;;;;;17.70;100.00;94457.34;4976121;28;20248;-79
2023/06/17 00:12:43;;;;;;;2.67;1.40;;;;;;;17.56;100.00;94460.69;4951624;28;20604;-78
2023/06/17 00:15:09;;;;;;;1.77;1.30;;;;;;;17.70;100.00;94456.53;4955276;28;20242;-82
2023/06/17 00:17:35;;;;;;;2.37;1.40;;;;;;;17.63;100.00;94461.25;4935502;28;20224;-79
2023/06/17 00:20:05;;;;;;;2.50;1.43;;;;;;;17.48;100.00;94449.47;4945570;28;20251;-80
2023/06/17 00:22:34;;;;;;;5.13;1.60;;;;;;;17.43;100.00;94446.03;4950716;28;20713;-79
2023/06/17 00:25:00;;;;;;;1.67;1.40;;;;;;;17.50;100.00;94450.03;4953050;28;20667;-81
2023/06/17 00:27:25;;;;;;;2.33;1.50;;;;;;;17.62;100.00;94447.25;4998014;28;20236;-80
2023/06/17 00:29:52;;;;;;;2.27;1.70;;;;;;;17.52;100.00;94449.81;5073993;28;20247;-81
2023/06/17 00:32:18;;;;;;;3.07;1.67;;;;;;;17.57;100.00;94446.41;5059580;28;20230;-80
2023/06/17 00:34:43;;;;;;;2.80;1.60;;;;;;;17.53;100.00;94445.34;5073333;28;20226;-80
2023/06/17 00:37:09;;;;;;;1.70;1.60;;;;;;;17.54;100.00;94447.72;5075092;28;20690;-78
2023/06/17 00:39:35;;;;;;;2.47;1.80;;;;;;;17.53;100.00;94447.97;4981574;28;20717;-78
2023/06/17 00:42:01;;;;;;;2.00;1.80;;;;;;;17.40;100.00;94447.31;4961379;28;20230;-78
2023/06/17 00:44:27;;;;;;;2.30;1.70;;;;;;;17.43;100.00;94448.66;5075255;28;20246;-80
2023/06/17 00:46:53;;;;;;;3.40;2.00;;;;;;;17.36;100.00;94454.16;5090320;28;20664;-79
2023/06/17 00:49:19;;;;;;;2.43;1.90;;;;;;;17.25;100.00;94449.84;5017931;28;20290;-80
2023/06/17 00:51:45;;;;;;;5.77;1.90;;;;;;;17.34;100.00;94442.22;4991316;28;20661;-77
2023/06/17 00:54:12;;;;;;;4.90;2.10;;;;;;;17.37;100.00;94441.72;5017978;28;20223;-79
2023/06/17 00:56:38;;;;;;;3.57;2.00;;;;;;;17.39;100.00;94440.44;5074148;28;20257;-79
2023/06/17 00:59:04;;;;;;;2.47;2.20;;;;;;;17.36;100.00;94440.91;5058963;28;20276;-80
2023/06/17 01:01:31;;;;;;;5.17;2.27;;;;;;;17.45;100.00;94438.63;4993164;28;20311;-81
2023/06/17 01:03:58;;;;;;;3.03;2.20;;;;;;;17.41;100.00;94443.59;4960866;28;20238;-78
2023/06/17 01:06:59;;;;;;;2.50;2.27;;;;;;;17.26;100.00;94438.22;5054418;28;20220;-80
2023/06/17 01:09:29;;;;;;;3.47;2.20;;;;;;;17.22;100.00;94438.97;5051661;28;20243;-79
2023/06/17 01:11:55;;;;;;;2.50;2.20;;;;;;;17.18;100.00;94440.50;5069338;28;20227;-78
2023/06/17 01:14:21;;;;;;;3.10;2.30;;;;;;;17.22;100.00;94434.47;5075897;28;20226;-79
2023/06/17 01:16:50;;;;;;;3.67;2.33;;;;;;;17.16;100.00;94438.13;5087967;28;20221;-82
2023/06/17 01:19:20;;;;;;;3.23;2.20;;;;;;;17.18;100.00;94432.56;5071115;28;20231;-79
2023/06/17 01:21:51;;;;;;;3.47;2.13;;;;;;;17.12;100.00;94437.03;5066315;28;20208;-81
2023/06/17 01:24:30;;;;;;;5.57;2.40;;;;;;;17.21;100.00;94440.81;5065302;28;20264;-80
2023/06/17 01:26:59;;;;;;;3.03;2.30;;;;;;;17.26;100.00;94438.22;5059432;28;20225;-80
2023/06/17 01:29:26;;;;;;;3.30;2.33;;;;;;;17.24;100.00;94437.66;5085015;28;20241;-79
2023/06/17 01:31:56;;;;;;;3.23;2.47;;;;;;;17.17;100.00;94439.69;5097274;28;20240;-81
2023/06/17 01:34:24;;;;;;;2.60;2.40;;;;;;;17.17;100.00;94434.41;5077548;28;20225;-79
2023/06/17 01:36:50;;;;;;;4.30;2.30;;;;;;;17.05;100.00;94431.13;4977872;28;20318;-79
2023/06/17 01:39:16;;;;;;;2.33;2.13;;;;;;;16.94;100.00;94434.75;4981197;28;20238;-80
2023/06/17 01:41:45;;;;;;;2.57;2.37;;;;;;;16.92;100.00;94430.75;4989497;28;20247;-80
2023/06/17 01:44:11;;;;;;;3.53;2.50;;;;;;;16.96;100.00;94426.56;4956883;28;20236;-81
2023/06/17 01:46:36;;;;;;;3.03;2.30;;;;;;;16.93;100.00;94427.88;4939973;28;20266;-82
2023/06/17 01:49:02;;;;;;;2.90;2.40;;;;;;;16.99;100.00;94428.69;4932818;28;20247;-78
2023/06/17 01:51:27;;;;;;;3.87;2.50;;;;;;;16.99;100.00;94429.50;4937543;28;20274;-80
2023/06/17 01:53:53;;;;;;;5.03;2.20;;;;;;;16.98;100.00;94419.19;4955766;28;20971;-78
2023/06/17 01:56:19;;;;;;;4.40;2.70;;;;;;;17.03;100.00;94429.81;4943973;28;20262;-80
2023/06/17 01:58:45;;;;;;;4.03;2.67;;;;;;;16.99;100.00;94421.56;4941164;28;20626;-81
2023/06/17 02:01:11;;;;;;;5.37;2.47;;;;;;;17.02;100.00;94431.66;4937074;28;20686;-80
2023/06/17 02:03:37;;;;;;;4.33;2.50;;;;;;;17.00;100.00;94425.03;4940898;28;20242;-81
2023/06/17 02:06:03;;;;;;;3.43;2.50;;;;;;;16.90;100.00;94419.63;4952677;28;20314;-82
2023/06/17 02:08:28;;;;;;;3.10;2.50;;;;;;;16.81;100.00;94416.66;4955170;28;20228;-81
2023/06/17 02:10:54;;;;;;;4.60;2.37;;;;;;;16.99;100.00;94420.78;4943186;28;20292;-79
2023/06/17 02:13:20;;;;;;;4.27;2.70;;;;;;;16.98;100.00;94425.25;4966524;28;20233;-80
2023/06/17 02:15:45;;;;;;;3.50;2.40;;;;;;;17.00;100.00;94419.72;4962141;28;20236;-81
2023/06/17 02:18:12;;;;;;;3.87;2.60;;;;;;;17.04;100.00;94426.91;4950334;28;20262;-80
2023/06/17 02:20:38;;;;;;;4.30;2.60;;;;;;;17.06;100.00;94421.34;4954384;28;20240;-80
2023/06/17 02:23:04;;;;;;;3.53;2.60;;;;;;;17.04;100.00;94423.47;4959805;28;20259;-80
2023/06/17 02:25:30;;;;;;;2.90;2.13;;;;;;;17.06;100.00;94437.22;4958516;28;20619;-81
2023/06/17 02:27:56;;;;;;;3.63;2.40;;;;;;;17.02;100.00;94426.38;4944573;28;20236;-80
2023/06/17 02:30:22;;;;;;;3.10;2.17;;;;;;;17.06;100.00;94432.75;4958590;28;20627;-80
2023/06/17 02:32:47;;;;;;;4.00;2.50;;;;;;;16.96;100.00;94426.56;4940487;28;20224;-80
2023/06/17 02:35:13;;;;;;;3.93;2.40;;;;;;;16.85;100.00;94430.97;4935343;28;20250;-80
2023/06/17 02:37:40;;;;;;;3.53;2.10;;;;;;;16.80;100.00;94420.34;4944783;28;20233;-81
2023/06/17 02:40:08;;;;;;;3.07;2.23;;;;;;;16.65;100.00;94422.81;4937809;28;20605;-80
2023/06/17 02:42:37;;;;;;;3.40;2.27;;;;;;;16.61;100.00;94422.53;4938215;28;20246;-81
2023/06/17 02:45:04;;;;;;;3.70;2.23;;;;;;;16.66;100.00;94421.78;4967170;28;20706;-81
2023/06/17 02:47:30;;;;;;;3.50;2.10;;;;;;;16.72;100.00;94431.34;4946219;28;20225;-82
2023/06/17 02:49:56;;;;;;;4.40;2.07;;;;;;;16.84;100.00;94432.00;4930399;28;20244;-77
2023/06/17 02:52:22;;;;;;;5.23;2.20;;;;;;;16.88;100.00;94430.47;4921002;28;20225;-79
2023/06/17 02:54:48;;;;;;;2.47;2.00;;;;;;;16.72;100.00;94423.41;4941363;28;20282;-79
2023/06/17 02:57:17;;;;;;;3.00;2.10;;;;;;;16.84;100.00;94432.00;4949725;28;20236;-79
2023/06/17 02:59:43;;;;;;;3.50;2.20;;;;;;;16.75;100.00;94423.72;4949213;28;20239;-80
2023/06/17 03:02:09;;;;;;;3.53;2.10;;;;;;;16.73;100.00;94436.41;4954248;28;20235;-79
2023/06/17 03:04:35;;;;;;;2.90;2.00;;;;;;;16.81;100.00;94437.81;4940584;28;20854;-82
2023/06/17 03:07:04;;;;;;;4.80;2.10;;;;;;;16.88;100.00;94437.59;4951945;28;20246;-79
2023/06/17 03:09:30;;;;;;;4.17;2.00;;;;;;;16.79;100.00;94440.69;4955113;28;20262;-79
2023/06/17 03:11:55;;;;;;;3.07;2.10;;;;;;;16.77;100.00;94434.84;4961424;28;20329;-78
2023/06/17 03:14:21;;;;;;;3.50;2.10;;;;;;;16.66;100.00;94435.81;4956806;28;20246;-79
2023/06/17 03:16:47;;;;;;;5.47;2.20;;;;;;;16.72;100.00;94437.44;4945811;28;20227;-78
2023/06/17 03:19:14;;;;;;;3.27;2.20;;;;;;;16.78;100.00;94444.38;4940061;28;20244;-79
2023/06/17 03:21:42;;;;;;;2.67;2.10;;;;;;;16.74;100.00;94453.06;4931920;28;20235;-79
2023/06/17 03:24:08;;;;;;;3.40;2.10;;;;;;;16.73;100.00;94454.91;4923388;28;20248;-79
2023/06/17 03:26:34;;;;;;;3.50;2.23;;;;;;;16.73;100.00;94449.63;4946780;28;20232;-80
2023/06/17 03:29:06;;;;;;;3.43;2.10;;;;;;;16.76;100.00;94450.97;4941287;28;20239;-81
2023/06/17 03:31:31;;;;;;;2.40;2.20;;;;;;;16.91;100.00;94458.25;4932369;28;20243;-80
2023/06/17 03:33:57;;;;;;;3.20;2.13;;;;;;;16.76;100.00;94451.78;4943086;28;20768;-80
2023/06/17 03:36:28;;;;;;;3.37;2.13;;;;;;;16.85;100.00;94454.75;4952779;28;20719;-79
2023/06/17 03:38:53;;;;;;;3.60;2.13;;;;;;;16.91;100.00;94464.31;4951043;28;20240;-78
2023/06/17 03:41:20;;;;;;;2.93;2.13;;;;;;;16.73;100.00;94454.91;4975392;28;20621;-79
2023/06/17 03:43:46;;;;;;;3.37;2.20;;;;;;;16.82;100.00;94461.34;4973625;28;20226;-78
2023/06/17 03:46:11;;;;;;;2.83;2.20;;;;;;;16.88;100.00;94466.69;5081915;28;20257;-80
2023/06/17 03:48:39;;;;;;;3.30;2.10;;;;;;;16.79;100.00;94459.19;5108776;28;20224;-81
2023/06/17 03:53:32;;;;;;;4.37;2.40;;;;;;;16.74;100.00;94461.00;5072023;28;20238;-78
2023/06/17 03:55:58;;;;;;;4.93;2.20;;;;;;;16.83;100.00;94464.78;5054735;28;20236;-77
2023/06/17 03:58:24;;;;;;;4.57;2.23;;;;;;;16.82;100.00;94465.81;5066766;28;20221;-78
2023/06/17 04:00:51;;;;;;;2.30;2.10;;;;;;;16.75;100.00;94478.44;5059395;28;20231;-78
2023/06/17 04:03:18;;;;;;;4.10;2.50;;;;;;;16.75;100.00;94481.06;5044294;28;20224;-80
2023/06/17 04:05:44;;;;;;;2.80;2.30;;;;;;;16.77;100.00;94484.25;5047687;28;20219;-79
2023/06/17 04:08:10;;;;;;;7.53;2.33;;;;;;;16.86;100.00;94479.34;5047081;28;20368;-79
2023/06/17 04:10:36;;;;;;;3.53;2.30;;;;;;;16.87;100.00;94484.38;5059326;28;20251;-80
2023/06/17 04:13:02;;;;;;;2.67;2.00;;;;;;;16.86;100.00;94493.34;4971147;28;21043;-80
2023/06/17 04:15:35;;;;;;;3.80;2.30;;;;;;;16.81;100.00;94490.66;5038348;28;20261;-81
2023/06/17 04:18:02;;;;;;;3.23;2.27;;;;;;;16.79;100.00;94487.44;5044925;28;20224;-80
2023/06/17 04:20:28;;;;;;;2.50;2.10;;;;;;;16.79;100.00;94487.44;5070477;28;20224;-79
2023/06/17 04:22:54;;;;;;;4.60;2.20;;;;;;;16.83;100.00;94499.16;5049755;28;20235;-76
2023/06/17 04:25:22;;;;;;;3.37;2.13;;;;;;;16.70;100.00;94489.75;5054137;28;20719;-76
2023/06/17 04:27:49;;;;;;;3.83;2.20;;;;;;;16.77;100.00;94490.34;5048931;28;20779;-76
2023/06/17 04:30:17;;;;;;;3.87;2.20;;;;;;;16.78;100.00;94491.97;5040851;28;20232;-76
2023/06/17 04:32:44;;;;;;;2.97;2.20;;;;;;;16.76;100.00;94488.78;5040411;28;20244;-78
2023/06/17 04:35:26;;;;;;;3.30;2.10;;;;;;;16.78;100.00;94493.81;5093782;27;20312;-77
2023/06/17 04:37:56;;;;;;;2.63;2.00;;;;;;;16.81;100.00;94498.59;5070280;28;20846;-75
2023/06/17 04:40:27;;;;;;;2.43;1.83;;;;;;;16.82;100.00;94502.81;5067668;28;20237;-76
2023/06/17 04:42:53;;;;;;;3.10;1.97;;;;;;;16.80;100.00;94502.28;5061439;28;20220;-76
2023/06/17 04:45:19;;;;;;;3.37;1.83;;;;;;;16.83;100.00;94501.78;5064110;28;20390;-78
2023/06/17 04:47:45;;;;;;;2.37;2.00;;;;;;;16.79;100.00;94503.31;5054376;28;20219;-75
2023/06/17 04:50:12;;;;;;;2.27;1.70;;;;;;;16.72;100.00;94508.78;5055935;28;20231;-76
2023/06/17 04:52:42;;;;;;;4.27;1.93;;;;;;;16.68;100.00;94501.59;5075308;28;20228;-76
2023/06/17 04:55:11;;;;;;;6.07;2.00;;;;;;;16.73;100.00;94507.75;5061695;28;20619;-76
2023/06/17 04:57:37;;;;;;;5.80;2.00;;;;;;;16.75;100.00;94507.50;5066268;28;20724;-77
2023/06/17 05:00:06;;;;;;;2.47;1.70;;;;;;;16.71;100.00;94504.56;5066311;28;20315;-76
2023/06/17 05:02:32;;;;;;;4.33;1.80;;;;;;;16.73;100.00;94505.13;5050782;28;20235;-76
2023/06/17 05:05:00;;;;;;;4.90;1.60;;;;;;;16.73;100.00;94510.41;5048535;28;20241;-77
2023/06/17 05:07:25;;;;;;;1.83;1.57;;;;;;;16.59;100.00;94514.47;5054616;28;20225;-77
2023/06/17 05:09:51;;;;;;;3.40;1.60;;;;;;;16.57;100.00;94511.28;5070889;28;20314;-77
2023/06/17 05:12:18;;;;;;;4.80;1.40;;;;;;;16.63;100.00;94509.47;5070276;28;20229;-77
2023/06/17 05:14:43;;;;;;;2.10;1.40;;;;;;;16.59;100.00;94508.38;5049066;28;20221;-79
2023/06/17 05:17:09;;;;;;;1.70;1.40;;;;;;;16.59;100.00;94508.38;5057629;28;20296;-78
2023/06/17 05:19:35;;;;;;;4.47;1.30;;;;;;;16.53;100.00;94525.19;5068372;28;20223;-77
2023/06/17 05:22:01;;;;;;;1.93;1.30;;;;;;;16.53;100.00;94519.91;5044136;28;20232;-77
2023/06/17 05:24:26;;;;;;;1.37;1.27;;;;;;;16.63;100.00;94517.41;5080549;28;20219;-77
2023/06/17 05:26:52;;;;;;;3.73;1.60;;;;;;;16.65;100.00;94517.94;5079586;28;20220;-76
2023/06/17 05:29:18;;;;;;;5.10;2.17;;;;;;;16.67;100.00;94516.66;5079205;28;20369;-77
2023/06/17 05:31:44;;;;;;;2.50;1.40;;;;;;;16.59;100.00;94525.03;5062426;28;20300;-77
2023/06/17 05:34:10;;;;;;;3.63;1.60;;;;;;;16.62;100.00;94521.09;5064302;28;20755;-77
2023/06/17 05:36:36;;;;;;;2.87;1.40;;;;;;;16.58;100.00;94527.91;5070906;28;20239;-77
2023/06/17 05:39:02;;;;;;;3.53;1.47;;;;;;;16.55;100.00;94528.41;5062446;28;20228;-78
2023/06/17 05:41:27;;;;;;;2.23;1.50;;;;;;;16.56;100.00;94527.34;5075333;28;20232;-77
2023/06/17 05:43:53;;;;;;;2.20;1.60;;;;;;;16.57;100.00;94531.59;5050598;28;20231;-76
2023/06/17 05:46:19;;;;;;;2.63;1.40;;;;;;;16.56;100.00;94530.00;5049918;28;20232;-77
2023/06/17 05:48:45;;;;;;;4.13;1.50;;;;;;;16.60;100.00;94534.53;5058747;28;20241;-76
2023/06/17 05:51:10;;;;;;;1.97;1.50;;;;;;;16.58;100.00;94528.72;5041017;28;20610;-75
2023/06/17 05:53:36;;;;;;;4.87;1.60;;;;;;;16.58;100.00;94523.44;5037519;28;20646;-76
2023/06/17 05:56:02;;;;;;;3.90;1.77;;;;;;;16.62;100.00;94523.75;5066374;28;20235;-76
2023/06/17 05:58:27;;;;;;;3.73;1.60;;;;;;;16.64;100.00;94521.66;5052900;28;20235;-76
2023/06/17 06:00:53;;;;;;;3.33;1.70;;;;;;;16.65;100.00;94523.22;5028475;28;20224;-76
2023/06/17 06:03:19;;;;;;;3.30;1.50;;;;;;;16.63;100.00;94518.19;5052604;28;20243;-75
2023/06/17 06:05:44;;;;;;;3.50;1.50;;;;;;;16.42;100.00;94518.16;5053365;28;20690;-76
2023/06/17 06:08:10;;;;;;;2.60;1.53;;;;;;;16.51;100.00;94514.03;5054004;28;20583;-76
2023/06/17 06:10:36;;;;;;;2.27;1.53;;;;;;;16.60;100.00;94520.53;5042936;28;20267;-77
2023/06/17 06:13:04;;;;;;;3.13;1.57;;;;;;;16.45;100.00;94518.50;5050926;28;20251;-76
2023/06/17 06:15:30;;;;;;;3.33;1.70;;;;;;;16.51;100.00;94514.88;5039976;28;20321;-77
2023/06/17 06:17:56;;;;;;;3.40;1.90;;;;;;;16.64;100.00;94527.75;5073395;28;20215;-77
2023/06/17 06:20:26;;;;;;;2.30;1.80;;;;;;;16.63;100.00;94523.50;5052745;28;20251;-77
2023/06/17 06:23:29;;;;;;;3.07;1.70;;;;;;;16.55;100.00;94528.41;5052584;28;20224;-77
2023/06/17 06:25:55;;;;;;;4.13;1.70;;;;;;;16.70;100.00;94537.31;5082755;28;20245;-78
2023/06/17 06:31:08;;;;;;;2.73;1.63;;;;;;;16.75;100.00;94540.03;5043673;28;20724;-76
2023/06/17 06:33:35;;;;;;;2.37;1.70;;;;;;;16.81;100.00;94548.81;5054289;28;20233;-77
2023/06/17 06:36:00;;;;;;;3.17;1.90;;;;;;;16.74;100.00;94545.56;5070000;28;20229;-76
2023/06/17 06:38:26;;;;;;;3.73;2.10;;;;;;;16.78;100.00;94538.72;5051903;28;20251;-76
2023/06/17 06:40:55;;;;;;;4.30;2.00;;;;;;;16.75;100.00;94547.16;5058669;28;20220;-78
2023/06/17 06:43:23;;;;;;;2.83;1.90;;;;;;;16.76;100.00;94546.91;5017449;28;20237;-77
2023/06/17 06:45:49;;;;;;;3.00;1.90;;;;;;;16.80;100.00;94548.00;5067659;28;20695;-78
2023/06/17 06:48:15;;;;;;;2.27;1.70;;;;;;;16.81;100.00;94541.66;5047181;28;20789;-78
2023/06/17 06:53:30;;;;;;;3.37;1.57;;;;;;;16.90;100.00;94549.97;5120257;22;20368;-79
2023/06/17 06:55:56;;;;;;;3.30;1.50;;;;;;;16.91;100.00;94548.91;4997738;28;20484;-78
2023/06/17 06:58:22;;;;;;;2.50;1.43;;;;;;;16.68;100.00;94547.34;5009870;28;20317;-77
2023/06/17 07:00:48;;;;;;;3.47;1.90;;;;;;;16.78;100.00;94533.44;5027615;28;20218;-78
2023/06/17 07:03:13;;;;;;;3.03;1.90;;;;;;;16.85;100.00;94539.34;4991492;28;20249;-78
2023/06/17 07:05:39;;;;;;;3.13;1.50;;;;;;;16.84;100.00;94537.72;4992923;28;20258;-78
2023/06/17 07:08:04;;;;;;;3.33;1.90;;;;;;;16.80;100.00;94536.63;5024405;28;20261;-78
2023/06/17 07:10:30;;;;;;;11.57;2.10;;;;;;;16.84;100.00;94538.53;4994451;28;20602;-78
2023/06/17 07:12:56;;;;;;;3.53;1.70;;;;;;;16.87;100.00;94536.44;5026026;28;20615;-79
2023/06/17 07:15:22;;;;;;;3.37;1.80;;;;;;;16.95;100.00;94526.25;4993771;28;20226;-79
2023/06/17 07:17:48;;;;;;;3.83;1.63;;;;;;;16.92;100.00;94531.22;5025470;28;20708;-78
2023/06/17 07:20:14;;;;;;;2.83;1.40;;;;;;;16.93;100.00;94530.97;5041679;28;20240;-79
2023/06/17 07:22:40;;;;;;;3.10;1.60;;;;;;;16.84;100.00;94527.16;4990511;28;20233;-78
2023/06/17 07:25:06;;;;;;;2.03;1.40;;;;;;;16.91;100.00;94533.06;4989420;28;20260;-77
2023/06/17 07:27:32;;;;;;;4.37;1.70;;;;;;;16.92;100.00;94531.22;4994721;28;20261;-77
2023/06/17 07:29:58;;;;;;;3.63;1.83;;;;;;;16.97;100.00;94537.38;5011073;28;20276;-78
2023/06/17 07:32:23;;;;;;;3.17;2.03;;;;;;;17.00;100.00;94536.06;4997706;28;20265;-78
2023/06/17 07:34:50;;;;;;;3.43;1.90;;;;;;;16.83;100.00;94541.44;5023234;28;20226;-78
2023/06/17 07:37:16;;;;;;;3.27;2.00;;;;;;;16.97;100.00;94534.72;5005016;28;20321;-79
2023/06/17 07:39:45;;;;;;;3.80;1.90;;;;;;;17.03;100.00;94540.88;5056720;28;20232;-79
2023/06/17 07:42:16;;;;;;;3.50;1.70;;;;;;;16.99;100.00;94545.84;5000695;28;20844;-79
2023/06/17 07:44:43;;;;;;;2.40;1.80;;;;;;;17.03;100.00;94544.28;5032345;28;20288;-79
2023/06/17 07:47:11;;;;;;;1.80;1.50;;;;;;;17.01;100.00;94548.22;4983501;28;20699;-79
2023/06/17 07:49:37;;;;;;;3.53;1.50;;;;;;;17.03;100.00;94549.56;4992957;28;20228;-78
2023/06/17 07:52:03;;;;;;;1.70;1.60;;;;;;;17.12;100.00;94561.34;4992457;28;20241;-78
2023/06/17 07:54:30;;;;;;;3.07;1.50;;;;;;;17.07;100.00;94557.81;5042153;28;20230;-79
2023/06/17 07:56:56;;;;;;;2.87;1.50;;;;;;;16.99;100.00;94558.25;4993215;28;20254;-78
2023/06/17 07:59:22;;;;;;;2.93;1.60;;;;;;;16.99;100.00;94553.78;5025945;28;20746;-77
2023/06/17 08:01:48;;;;;;;3.43;1.70;;;;;;;17.05;100.00;94554.63;5022616;28;20226;-79
2023/06/17 08:04:14;;;;;;;2.20;1.60;;;;;;;16.99;100.00;94558.25;5025438;28;20214;-81
2023/06/17 08:06:40;;;;;;;2.90;1.60;;;;;;;17.08;100.00;94559.41;4993207;28;20291;-79
2023/06/17 08:09:06;;;;;;;3.27;1.50;;;;;;;17.07;100.00;94560.47;5009285;28;20222;-80
2023/06/17 08:11:32;;;;;;;1.80;1.53;;;;;;;17.15;100.00;94562.66;5008059;28;20712;-80
2023/06/17 08:13:59;;;;;;;2.20;1.50;;;;;;;17.11;100.00;94565.00;4991655;28;20233;-78
2023/06/17 08:16:25;;;;;;;4.60;1.40;;;;;;;17.11;100.00;94565.00;5008841;28;20337;-82
2023/06/17 08:18:51;;;;;;;3.27;1.50;;;;;;;17.11;100.00;94564.22;4992845;28;20222;-80
2023/06/17 08:21:17;;;;;;;2.33;1.50;;;;;;;17.13;100.00;94572.69;5041424;28;20254;-79
2023/06/17 08:23:43;;;;;;;2.47;1.70;;;;;;;17.15;100.00;94570.59;4991723;28;20237;-78
2023/06/17 08:26:08;;;;;;;4.00;1.50;;;;;;;17.14;100.00;94574.31;5007500;28;20226;-80
2023/06/17 08:28:38;;;;;;;3.60;1.40;;;;;;;17.14;100.00;94569.81;4993794;28;20242;-79
2023/06/17 08:31:04;;;;;;;3.77;1.60;;;;;;;17.16;100.00;94565.06;5006920;28;20226;-82
2023/06/17 08:34:37;;;;;;;2.30;1.50;;;;;;;17.23;100.00;94568.31;5010428;28;20222;-79
2023/06/17 08:37:40;;;;;;;2.60;1.47;;;;;;;17.18;100.00;94573.56;4944579;28;20712;-80
2023/06/17 08:40:06;;;;;;;1.80;1.40;;;;;;;17.23;100.00;94572.81;5018802;28;20313;-78
2023/06/17 08:42:32;;;;;;;2.50;1.50;;;;;;;17.16;100.00;94585.44;5025774;28;20230;-78
2023/06/17 08:44:58;;;;;;;2.10;1.50;;;;;;;17.09;100.00;94575.03;5050011;28;20256;-78
2023/06/17 08:47:26;;;;;;;2.10;1.50;;;;;;;17.19;100.00;94577.81;5030754;28;20241;-78
2023/06/17 08:49:55;;;;;;;2.30;1.57;;;;;;;17.22;100.00;94574.66;5026157;28;20233;-77
2023/06/17 08:52:21;;;;;;;1.63;1.50;;;;;;;17.16;100.00;94578.28;5025276;28;20238;-77
2023/06/17 08:54:46;;;;;;;2.10;1.40;;;;;;;17.17;100.00;94579.88;5018695;28;20253;-77
2023/06/17 08:57:12;;;;;;;1.57;1.43;;;;;;;17.08;100.00;94576.06;5005308;28;20298;-77
2023/06/17 08:59:39;;;;;;;3.03;1.73;;;;;;;17.20;100.00;94571.44;4997419;28;20236;-79
2023/06/17 09:02:04;;;;;;;1.93;1.70;;;;;;;17.11;100.00;94570.31;4981204;28;20230;-79
2023/06/17 09:04:30;;;;;;;2.40;1.80;;;;;;;17.12;100.00;94571.91;5008413;28;20237;-78
2023/06/17 09:06:56;;;;;;;3.77;2.20;;;;;;;17.14;100.00;94572.47;5016817;28;20225;-82
2023/06/17 09:09:21;;;;;;;3.87;2.00;;;;;;;17.21;100.00;94559.84;4992413;28;20811;-78
2023/06/17 09:11:51;;;;;;;3.23;1.90;;;;;;;17.20;100.00;94563.53;5024961;28;20332;-79
2023/06/17 09:14:16;;;;;;;4.37;2.20;;;;;;;17.31;100.00;94573.19;4996831;28;20230;-78
2023/06/17 09:16:45;;;;;;;2.60;2.20;;;;;;;17.25;100.00;94560.94;5008165;28;20326;-78
2023/06/17 09:19:14;;;;;;;3.80;2.30;;;;;;;17.33;100.00;94568.44;5008059;28;20230;-77
2023/06/17 09:21:39;;;;;;;4.00;2.30;;;;;;;17.45;100.00;94574.38;4994760;28;20226;-78
2023/06/17 09:24:06;;;;;;;3.90;2.60;;;;;;;17.50;100.00;94569.09;5008926;28;20229;-79
2023/06/17 09:26:32;;;;;;;4.33;2.53;;;;;;;17.58;100.00;94567.09;5011228;28;20241;-78
2023/06/17 09:29:08;;;;;;;4.47;2.50;;;;;;;17.57;100.00;94568.16;5026944;28;20321;-77
2023/06/17 09:31:46;;;;;;;4.03;2.27;;;;;;;17.59;100.00;94571.34;5009614;28;20229;-78
2023/06/17 09:34:15;;;;;;;2.87;2.57;;;;;;;17.60;100.00;94568.44;5006500;28;20253;-79
2023/06/17 09:36:41;;;;;;;3.57;2.63;;;;;;;17.60;100.00;94565.78;4996333;28;20873;-78
2023/06/17 09:39:08;;;;;;;3.77;3.00;;;;;;;17.68;100.00;94569.81;5009022;28;20245;-78
2023/06/17 09:41:40;;;;;;;5.40;2.70;;;;;;;17.70;100.00;94573.00;4995782;28;20257;-80
2023/06/17 09:44:06;;;;;;;5.13;2.93;;;;;;;17.68;100.00;94564.53;4995995;28;20292;-78
2023/06/17 09:46:37;;;;;;;6.27;2.90;;;;;;;17.77;100.00;94573.63;4997136;28;20660;-78
2023/06/17 09:49:10;;;;;;;8.47;3.27;;;;;;;17.76;100.00;94582.59;5059264;28;20234;-78
2023/06/17 09:51:37;;;;;;;3.67;2.47;;;;;;;17.77;100.00;94574.41;5026290;28;20238;-78
2023/06/17 09:54:04;;;;;;;4.60;2.63;;;;;;;17.88;100.00;94581.41;5044175;28;20241;-79
2023/06/17 09:56:33;;;;;;;4.43;2.73;;;;;;;17.83;100.00;94583.19;5037264;28;20237;-79
2023/06/17 09:59:03;;;;;;;2.80;2.23;;;;;;;17.77;100.00;94579.69;4996965;28;20225;-79
2023/06/17 10:01:30;;;;;;;4.13;2.27;;;;;;;17.89;100.00;94579.53;4997036;28;20291;-80
2023/06/17 10:03:59;;;;;;;3.53;2.30;;;;;;;17.87;100.00;94578.97;4993926;28;20230;-79
2023/06/17 10:06:35;;;;;;;2.80;2.00;;;;;;;17.83;100.00;94586.66;5009602;28;20265;-82
2023/06/17 10:09:08;;;;;;;2.67;2.03;;;;;;;17.87;100.00;94584.28;5008926;28;20252;-78
2023/06/17 10:11:35;;;;;;;2.73;2.13;;;;;;;17.90;100.00;94581.94;5012379;28;20238;-80
2023/06/17 10:14:07;;;;;;;4.40;1.90;;;;;;;17.89;100.00;94587.47;5011217;28;20234;-79
2023/06/17 10:16:37;;;;;;;2.47;1.97;;;;;;;17.79;100.00;94582.13;4993984;28;20333;-81
2023/06/17 10:19:05;;;;;;;2.73;1.80;;;;;;;17.76;100.00;94582.59;5008001;28;20245;-80
2023/06/17 10:21:31;;;;;;;2.53;1.70;;;;;;;17.67;100.00;94592.06;5011411;28;20699;-81
2023/06/17 10:23:58;;;;;;;3.77;1.80;;;;;;;17.69;100.00;94592.59;4992312;28;20712;-80
2023/06/17 10:26:24;;;;;;;2.87;1.50;;;;;;;17.59;100.00;94595.16;4994182;28;20256;-79
2023/06/17 10:29:01;;;;;;;1.60;1.50;;;;;;;17.63;100.00;94604.19;4994355;28;20254;-79
2023/06/17 10:31:31;;;;;;;2.33;1.80;;;;;;;17.55;100.00;94596.72;5027887;28;20240;-82
2023/06/17 10:34:03;;;;;;;5.13;2.00;;;;;;;17.61;100.00;94603.63;4972622;28;20756;-81
2023/06/17 10:36:29;;;;;;;3.57;1.80;;;;;;;17.55;100.00;94591.41;4994534;28;20287;-82
2023/06/17 10:39:03;;;;;;;2.10;1.90;;;;;;;17.53;100.00;94596.94;5005843;28;20245;-80
2023/06/17 10:41:52;;;;;;;3.30;2.10;;;;;;;17.55;100.00;94597.53;5008990;28;20222;-80
2023/06/17 10:44:24;;;;;;;2.90;2.23;;;;;;;17.55;100.00;94597.53;5006544;28;20295;-82
2023/06/17 10:46:54;;;;;;;3.37;2.37;;;;;;;17.55;100.00;94594.06;5025113;28;20310;-80
2023/06/17 10:49:20;;;;;;;6.43;2.40;;;;;;;17.57;100.00;94598.06;4992752;28;20318;-79
2023/06/17 10:51:46;;;;;;;6.10;2.73;;;;;;;17.70;100.00;94604.78;4992456;28;20321;-78
2023/06/17 10:54:15;;;;;;;3.90;2.77;;;;;;;17.55;100.00;94602.81;5024077;28;20241;-81
2023/06/17 10:56:52;;;;;;;6.83;2.83;;;;;;;17.54;100.00;94606.50;5005222;28;20229;-81
2023/06/17 10:59:31;;;;;;;5.47;3.30;;;;;;;17.56;100.00;94611.53;5017290;28;20835;-80
2023/06/17 11:02:11;;;;;;;6.27;3.57;;;;;;;17.57;100.00;94613.13;4998656;28;20284;-81
2023/06/17 11:04:43;;;;;;;4.77;3.70;;;;;;;17.57;100.00;94608.66;4994740;28;20245;-80
2023/06/17 11:07:09;;;;;;;4.60;3.43;;;;;;;17.43;100.00;94605.53;4986989;28;20610;-80
2023/06/17 11:09:34;;;;;;;6.90;3.87;;;;;;;17.43;100.00;94605.53;5014079;28;20267;-79
2023/06/17 11:12:02;;;;;;;5.83;4.27;;;;;;;17.40;100.00;94611.34;5037022;28;20234;-78
2023/06/17 11:14:28;;;;;;;5.30;4.20;;;;;;;17.44;100.00;94616.94;5011083;28;20229;-81
2023/06/17 11:16:55;;;;;;;6.47;4.37;;;;;;;17.44;100.00;94614.28;4995562;28;20241;-79
2023/06/17 11:19:33;;;;;;;7.47;4.07;;;;;;;17.43;100.00;94613.47;5028320;28;20226;-80
2023/06/17 11:22:03;;;;;;;6.10;4.43;;;;;;;17.38;100.00;94610.00;5002544;28;20240;-80
2023/06/17 11:24:29;;;;;;;8.27;4.57;;;;;;;17.38;100.00;94604.72;5022761;28;20257;-77
2023/06/17 11:26:58;;;;;;;6.77;4.70;;;;;;;17.39;100.00;94607.09;4994580;28;20703;-78
2023/06/17 11:29:26;;;;;;;6.93;4.80;;;;;;;17.39;100.00;94611.59;5026390;28;20229;-78
2023/06/17 11:31:53;;;;;;;7.20;4.90;;;;;;;17.39;100.00;94607.09;5010175;28;20740;-77
2023/06/17 11:34:19;;;;;;;7.87;5.10;;;;;;;17.38;100.00;94610.81;5008746;28;20321;-77